Philadelphia, Pennsylvania
Traffic Map
Current Weather Conditions
Philadelphia, Pennsylvania
Scattered Clouds
Scattered Clouds
23°
Feels Like: 8°
Wind Chill: Ceiling: Unl
Heat Index: 23° Visibility: 10mi
Dew Point: Wind: 20mph
Humidity: 48% Direction: 330° (NNW)
Pressure: 29.9in Gusts: 28mph
Raw Report DataKPHL 280354Z 33017G24KT 10SM FEW150 SCT250 M05/M14 A2990 RMK AO2 SLP125 T10501144 $
Traffic Incident Summary
Active as of:
Severity:
Category:
InformationThere was an issue retrieving the traffic information for this location. Please try a different location or try again shortly.
Advertisements
Track Severe Weather on mobile